createdAt,value
2023-01-10T00:02:02.477Z,15.23
2023-01-10T00:04:30.992Z,18.83
2023-01-10T00:07:00.169Z,17.03
2023-01-10T00:09:29.666Z,20.80
2023-01-10T00:12:15.207Z,15.50
2023-01-10T00:14:43.348Z,26.53
2023-01-10T00:17:11.463Z,14.63
2023-01-10T00:19:39.687Z,11.57
2023-01-10T00:22:22.780Z,14.63
2023-01-10T00:24:53.737Z,19.87
2023-01-10T00:27:23.604Z,11.50
2023-01-10T00:29:53.192Z,20.50
2023-01-10T00:32:22.021Z,18.83
2023-01-10T00:34:50.161Z,14.30
2023-01-10T00:37:18.387Z,20.80
2023-01-10T00:39:46.627Z,16.37
2023-01-10T00:42:33.539Z,16.77
2023-01-10T00:45:01.914Z,15.80
2023-01-10T00:47:30.080Z,13.60
2023-01-10T00:49:58.272Z,17.50
2023-01-10T00:52:26.424Z,15.30
2023-01-10T00:54:55.540Z,11.90
2023-01-10T00:57:25.013Z,8.17
2023-01-10T00:59:53.203Z,19.97
2023-01-10T01:02:21.423Z,20.67
2023-01-10T01:04:49.615Z,13.83
2023-01-10T01:07:17.664Z,19.80
2023-01-10T01:10:09.335Z,12.10
2023-01-10T01:12:38.879Z,16.67
2023-01-10T01:15:07.989Z,12.27
2023-01-10T01:17:36.012Z,16.17
2023-01-10T01:20:04.561Z,14.07
2023-01-10T01:22:32.653Z,15.77
2023-01-10T01:25:00.705Z,16.50
2023-01-10T01:27:28.751Z,23.17
2023-01-10T01:29:58.410Z,11.80
2023-01-10T01:32:26.713Z,12.50
2023-01-10T01:34:55.032Z,15.33
2023-01-10T01:37:23.141Z,16.30
2023-01-10T01:39:51.200Z,21.67
2023-01-10T01:42:25.312Z,15.37
2023-01-10T01:45:34.095Z,17.63
2023-01-10T01:48:09.598Z,11.27
2023-01-10T01:50:43.138Z,13.50
2023-01-10T01:53:16.901Z,15.27
2023-01-10T01:55:47.220Z,10.63
2023-01-10T01:58:19.170Z,19.27
2023-01-10T02:00:51.296Z,21.63
2023-01-10T02:03:19.875Z,12.33
2023-01-10T02:05:48.004Z,15.37
2023-01-10T02:08:16.071Z,12.00
2023-01-10T02:10:50.197Z,14.20
2023-01-10T02:13:21.522Z,14.67
2023-01-10T02:15:51.386Z,14.57
2023-01-10T02:18:23.473Z,12.10
2023-01-10T02:21:31.383Z,14.97
2023-01-10T02:24:37.901Z,8.53
2023-01-10T02:27:23.535Z,16.33
2023-01-10T02:30:19.703Z,14.80
2023-01-10T02:33:04.667Z,20.13
2023-01-10T02:35:51.978Z,15.10
2023-01-10T02:38:34.088Z,13.50
2023-01-10T02:41:10.992Z,13.63
2023-01-10T02:43:43.992Z,13.90
2023-01-10T02:46:16.710Z,11.80
2023-01-10T02:48:46.360Z,15.63
2023-01-10T02:51:19.789Z,20.60
2023-01-10T02:53:52.243Z,16.00
2023-01-10T02:57:10.724Z,14.43
2023-01-10T03:00:24.621Z,15.03
2023-01-10T03:03:10.063Z,23.40
2023-01-10T03:05:53.026Z,12.03
2023-01-10T03:08:31.389Z,17.23
2023-01-10T03:11:02.754Z,13.47
2023-01-10T03:13:36.366Z,15.40
2023-01-10T03:16:08.853Z,17.13
2023-01-10T03:18:43.880Z,12.63
2023-01-10T03:21:14.539Z,13.60
2023-01-10T03:23:43.102Z,10.55
2023-01-10T03:26:13.069Z,11.07
2023-01-10T03:28:49.913Z,13.73
2023-01-10T03:31:22.642Z,14.60
2023-01-10T03:33:51.397Z,16.77
2023-01-10T03:36:31.007Z,13.20
2023-01-10T03:39:14.536Z,11.67
2023-01-10T03:41:50.204Z,21.60
2023-01-10T03:44:40.516Z,15.53
2023-01-10T03:47:13.719Z,8.77
2023-01-10T03:49:47.981Z,16.90
2023-01-10T03:52:20.231Z,10.70
2023-01-10T03:54:48.845Z,14.40
2023-01-10T03:57:19.055Z,15.70
2023-01-10T03:59:48.480Z,19.37
2023-01-10T04:02:16.541Z,15.03
2023-01-10T04:04:44.709Z,14.07
2023-01-10T04:07:12.902Z,11.63
2023-01-10T04:09:42.317Z,11.40
2023-01-10T04:12:10.568Z,11.10
2023-01-10T04:14:38.641Z,11.90
2023-01-10T04:17:06.740Z,14.43
2023-01-10T04:19:34.927Z,13.83
2023-01-10T04:22:03.352Z,14.30
2023-01-10T04:24:31.441Z,11.57
2023-01-10T04:27:01.189Z,12.37
2023-01-10T04:29:29.353Z,9.07
2023-01-10T04:31:57.761Z,12.73
2023-01-10T04:34:25.912Z,14.77
2023-01-10T04:36:54.038Z,7.60
2023-01-10T04:39:22.163Z,16.50
2023-01-10T04:41:50.187Z,12.07
2023-01-10T04:44:19.624Z,13.80
2023-01-10T04:46:47.785Z,17.70
2023-01-10T04:49:15.824Z,14.67
2023-01-10T04:51:44.072Z,19.77
2023-01-10T04:54:12.269Z,15.87
2023-01-10T04:56:40.569Z,17.57
2023-01-10T04:59:10.295Z,16.80
2023-01-10T05:01:39.976Z,11.77
2023-01-10T05:04:09.211Z,16.93
2023-01-10T05:06:40.018Z,10.43
2023-01-10T05:09:08.355Z,19.85
2023-01-10T05:11:36.490Z,15.50
2023-01-10T05:14:04.627Z,11.83
2023-01-10T05:16:35.192Z,10.60
2023-01-10T05:19:04.786Z,14.68
2023-01-10T05:21:32.963Z,16.93
2023-01-10T05:24:01.051Z,15.63
2023-01-10T05:26:29.189Z,17.43
2023-01-10T05:28:58.375Z,10.03
2023-01-10T05:31:29.696Z,21.77
2023-01-10T05:33:57.911Z,14.23
2023-01-10T05:36:27.376Z,12.53
2023-01-10T05:38:55.713Z,15.77
2023-01-10T05:41:24.152Z,17.47
2023-01-10T05:43:53.566Z,21.80
2023-01-10T05:46:21.736Z,16.77
2023-01-10T05:48:49.742Z,14.93
2023-01-10T05:51:17.850Z,11.10
2023-01-10T05:53:48.093Z,14.10
2023-01-10T05:58:47.297Z,13.10
2023-01-10T06:01:17.900Z,15.07
2023-01-10T06:03:46.147Z,15.33
2023-01-10T06:06:14.260Z,16.47
2023-01-10T06:08:42.374Z,12.00
2023-01-10T06:11:11.970Z,16.57
2023-01-10T06:13:40.553Z,16.43
2023-01-10T06:16:08.970Z,16.87
2023-01-10T06:18:37.088Z,27.20
2023-01-10T06:21:07.431Z,13.40
2023-01-10T06:23:35.598Z,28.42
2023-01-10T06:26:03.935Z,15.40
2023-01-10T06:28:33.467Z,18.37
2023-01-10T06:31:03.695Z,16.40
2023-01-10T06:33:31.853Z,13.43
2023-01-10T06:35:59.988Z,16.23
2023-01-10T06:38:28.281Z,14.17
2023-01-10T06:40:56.352Z,17.00
2023-01-10T06:43:25.917Z,21.83
2023-01-10T06:45:55.733Z,12.33
2023-01-10T06:48:24.881Z,16.60
2023-01-10T06:50:54.722Z,17.67
2023-01-10T06:53:23.990Z,16.70
2023-01-10T06:55:52.214Z,13.60
2023-01-10T06:58:20.292Z,18.27
2023-01-10T07:00:48.539Z,18.90
2023-01-10T07:03:20.149Z,18.00
2023-01-10T07:05:48.379Z,14.53
2023-01-10T07:08:16.873Z,11.77
2023-01-10T07:10:45.998Z,12.70
2023-01-10T07:13:14.032Z,16.27
2023-01-10T07:15:42.195Z,16.73
2023-01-10T07:18:12.665Z,15.87
2023-01-10T07:20:42.461Z,15.88
2023-01-10T07:23:10.607Z,15.90
2023-01-10T07:25:38.744Z,20.20
2023-01-10T07:28:07.268Z,15.60
2023-01-10T07:30:35.872Z,15.97
2023-01-10T07:33:04.086Z,22.93
2023-01-10T07:35:34.729Z,16.00
2023-01-10T07:38:04.392Z,18.75
2023-01-10T07:40:32.591Z,16.47
2023-01-10T07:43:01.660Z,21.77
2023-01-10T07:45:31.573Z,19.20
2023-01-10T07:48:00.481Z,13.87
2023-01-10T07:50:30.888Z,19.03
2023-01-10T07:53:00.818Z,16.73
2023-01-10T07:55:31.316Z,16.63
2023-01-10T07:57:59.780Z,10.50
2023-01-10T08:00:27.957Z,10.43
2023-01-10T08:02:57.510Z,12.57
2023-01-10T08:05:25.788Z,12.07
2023-01-10T08:07:55.275Z,10.30
2023-01-10T08:10:23.518Z,11.67
2023-01-10T08:12:53.194Z,13.03
2023-01-10T08:15:21.509Z,13.93
2023-01-10T08:17:49.572Z,5.43
2023-01-10T08:20:17.865Z,18.10
2023-01-10T08:22:46.189Z,12.03
2023-01-10T08:25:14.406Z,12.33
2023-01-10T08:27:42.673Z,21.13
2023-01-10T08:30:14.044Z,15.30
2023-01-10T08:32:42.523Z,10.13
2023-01-10T08:35:11.761Z,11.97
2023-01-10T08:37:40.033Z,7.47
2023-01-10T08:40:09.584Z,7.17
2023-01-10T08:42:37.863Z,10.93
2023-01-10T08:45:06.708Z,13.23
2023-01-10T08:47:36.241Z,13.90
2023-01-10T08:50:05.892Z,8.87
2023-01-10T08:52:35.252Z,9.95
2023-01-10T08:55:03.297Z,11.23
2023-01-10T08:57:32.520Z,8.63
2023-01-10T09:00:00.775Z,6.63
2023-01-10T09:02:28.936Z,13.43
2023-01-10T09:04:58.462Z,4.50
2023-01-10T09:07:26.545Z,14.57
2023-01-10T09:09:54.632Z,9.53
2023-01-10T09:12:40.147Z,8.07
2023-01-10T09:15:09.576Z,10.07
2023-01-10T09:17:37.696Z,8.07
2023-01-10T09:20:10.200Z,2.77
2023-01-10T09:22:38.445Z,4.73
2023-01-10T09:25:08.115Z,4.20
2023-01-10T09:27:36.370Z,6.83
2023-01-10T09:30:04.927Z,3.30
2023-01-10T09:32:33.031Z,3.40
2023-01-10T09:35:01.238Z,3.40
2023-01-10T09:37:33.673Z,5.43
2023-01-10T09:40:02.032Z,1.83
2023-01-10T09:42:48.571Z,2.27
2023-01-10T09:45:22.691Z,2.63
2023-01-10T09:47:55.438Z,1.90
2023-01-10T09:50:32.976Z,0.40
2023-01-10T09:53:09.876Z,3.47
2023-01-10T09:55:40.128Z,1.53
2023-01-10T09:58:14.405Z,0.73
2023-01-10T10:00:49.126Z,0.30
2023-01-10T10:03:28.211Z,0.80
2023-01-10T10:06:10.639Z,0.63
2023-01-10T10:08:42.150Z,0.30
2023-01-10T10:11:31.524Z,0.47
2023-01-10T10:14:08.541Z,0.60
2023-01-10T10:16:55.936Z,0.67
2023-01-10T10:19:34.392Z,0.70
2023-01-10T10:22:14.141Z,0.47
2023-01-10T10:24:58.401Z,0.40
2023-01-10T10:27:37.681Z,1.00
2023-01-10T10:30:28.719Z,1.33
2023-01-10T10:33:14.565Z,0.40
2023-01-10T10:35:46.286Z,0.50
2023-01-10T10:38:20.717Z,0.43
2023-01-10T10:40:51.972Z,0.40
2023-01-10T10:43:22.595Z,0.87
2023-01-10T10:45:55.442Z,1.25
2023-01-10T10:48:27.125Z,0.97
2023-01-10T10:51:04.640Z,0.50
2023-01-10T10:53:35.092Z,0.60
2023-01-10T10:56:15.375Z,1.25
2023-01-10T10:58:49.858Z,0.68
2023-01-10T11:01:20.541Z,1.60
2023-01-10T11:03:53.959Z,0.80
2023-01-10T11:06:25.034Z,0.50
2023-01-10T11:11:31.662Z,0.60
2023-01-10T11:14:01.957Z,0.50
2023-01-10T11:16:38.040Z,0.57
2023-01-10T11:19:19.297Z,1.03
2023-01-10T11:21:51.998Z,2.10
2023-01-10T11:24:36.525Z,2.30
2023-01-10T11:27:25.010Z,0.50
2023-01-10T11:29:59.297Z,0.77
2023-01-10T11:32:38.626Z,0.73
2023-01-10T11:35:21.927Z,0.50
2023-01-10T11:38:07.055Z,3.40
2023-01-10T11:41:00.983Z,0.57
2023-01-10T11:43:34.986Z,1.70
2023-01-10T11:46:21.469Z,0.50
2023-01-10T11:49:06.744Z,1.20
2023-01-10T11:52:00.334Z,0.90
2023-01-10T11:54:30.864Z,3.63
2023-01-10T11:57:10.056Z,1.33
2023-01-10T11:59:40.058Z,0.93
2023-01-10T12:02:19.012Z,1.05
2023-01-10T12:04:47.866Z,2.47
2023-01-10T12:07:19.237Z,1.47
2023-01-10T12:09:57.350Z,2.03
2023-01-10T12:12:30.484Z,2.03
2023-01-10T12:15:04.908Z,2.83
2023-01-10T12:17:38.407Z,0.90
2023-01-10T12:20:17.684Z,0.63
2023-01-10T12:22:49.074Z,1.40
2023-01-10T12:25:23.344Z,1.43
2023-01-10T12:27:51.734Z,1.07
2023-01-10T12:30:30.693Z,1.87
2023-01-10T12:33:02.177Z,2.83
2023-01-10T12:35:40.099Z,3.43
2023-01-10T12:38:40.338Z,2.13
2023-01-10T12:41:32.388Z,1.43
2023-01-10T12:44:12.434Z,2.80
2023-01-10T12:47:08.336Z,1.37
2023-01-10T12:49:47.037Z,2.58
2023-01-10T12:52:31.614Z,2.23
2023-01-10T12:55:22.402Z,4.53
2023-01-10T12:57:54.655Z,3.67
2023-01-10T13:00:32.785Z,4.17
2023-01-10T13:03:18.819Z,4.75
2023-01-10T13:05:49.674Z,4.83
2023-01-10T13:08:20.810Z,11.20
2023-01-10T13:13:39.523Z,13.17
2023-01-10T13:16:29.144Z,7.20
2023-01-10T13:19:06.295Z,18.13
2023-01-10T13:21:38.257Z,14.63
2023-01-10T13:24:18.403Z,14.10
2023-01-10T13:27:05.629Z,18.93
2023-01-10T13:29:42.392Z,20.15
2023-01-10T13:32:23.446Z,23.53
2023-01-10T13:37:29.287Z,18.93
2023-01-10T13:40:08.482Z,20.35
2023-01-10T13:43:11.089Z,13.65
2023-01-10T13:46:39.892Z,23.08
2023-01-10T13:50:04.956Z,23.48
2023-01-10T13:52:38.357Z,33.60
2023-01-10T13:55:34.238Z,28.98
2023-01-10T13:58:46.696Z,32.58
2023-01-10T14:01:46.327Z,29.20
2023-01-10T14:04:23.567Z,32.30
2023-01-10T14:06:57.720Z,31.00
2023-01-10T14:09:44.718Z,25.08
2023-01-10T14:12:22.328Z,34.33
2023-01-10T14:14:55.472Z,41.50
2023-01-10T14:17:27.759Z,33.80
2023-01-10T14:20:04.247Z,19.98
2023-01-10T14:22:35.698Z,30.05
2023-01-10T14:25:07.971Z,28.42
2023-01-10T14:27:48.900Z,40.78
2023-01-10T14:30:20.037Z,35.53
2023-01-10T14:32:52.483Z,37.17
2023-01-10T14:35:23.185Z,26.88
2023-01-10T14:37:56.721Z,27.85
2023-01-10T14:40:42.749Z,28.77
2023-01-10T14:43:15.052Z,33.25
2023-01-10T14:45:51.687Z,22.75
2023-01-10T14:48:29.669Z,27.25
2023-01-10T14:51:17.747Z,19.20
2023-01-10T14:53:46.559Z,28.75
2023-01-10T14:56:22.177Z,21.90
2023-01-10T14:58:54.219Z,19.08
2023-01-10T15:01:26.510Z,16.52
2023-01-10T15:03:57.116Z,17.50
2023-01-10T15:06:29.803Z,16.85
2023-01-10T15:09:03.783Z,13.68
2023-01-10T15:11:34.281Z,21.60
2023-01-10T15:14:10.532Z,14.05
2023-01-10T15:16:43.010Z,16.88
2023-01-10T15:19:16.534Z,10.90
2023-01-10T15:21:47.435Z,9.90
2023-01-10T15:24:38.345Z,12.80
2023-01-10T15:27:16.190Z,12.30
2023-01-10T15:30:14.818Z,12.98
2023-01-10T15:35:49.082Z,17.25
2023-01-10T15:38:27.376Z,13.18
2023-01-10T15:40:58.453Z,22.10
2023-01-10T15:45:59.158Z,20.75
2023-01-10T15:48:35.408Z,17.40
2023-01-10T15:51:07.172Z,16.33
2023-01-10T15:53:53.669Z,15.38
2023-01-10T15:56:39.772Z,20.30
2023-01-10T15:59:28.575Z,14.30
2023-01-10T16:02:06.532Z,17.55
2023-01-10T16:04:36.200Z,19.95
2023-01-10T16:07:13.206Z,24.77
2023-01-10T16:09:49.588Z,12.93
2023-01-10T16:12:48.515Z,19.33
2023-01-10T16:15:21.702Z,15.57
2023-01-10T16:17:50.677Z,19.70
2023-01-10T16:20:21.101Z,20.20
2023-01-10T16:22:50.885Z,25.40
2023-01-10T16:25:24.906Z,21.85
2023-01-10T16:27:56.380Z,25.08
2023-01-10T16:30:29.403Z,19.65
2023-01-10T16:32:58.748Z,20.88
2023-01-10T16:35:28.389Z,17.50
2023-01-10T16:37:58.539Z,28.08
2023-01-10T16:40:32.324Z,25.00
2023-01-10T16:43:23.596Z,22.10
2023-01-10T16:46:14.471Z,28.50
2023-01-10T16:48:50.174Z,28.50
2023-01-10T16:51:20.278Z,20.95
2023-01-10T16:53:49.445Z,20.63
2023-01-10T16:56:20.631Z,13.43
2023-01-10T16:58:49.726Z,14.50
2023-01-10T17:02:01.817Z,30.40
2023-01-10T17:04:28.254Z,19.45
2023-01-10T17:07:16.160Z,22.50
2023-01-10T17:09:44.623Z,20.83
2023-01-10T17:12:19.459Z,15.10
2023-01-10T17:14:48.967Z,16.08
2023-01-10T17:17:18.630Z,16.48
2023-01-10T17:19:47.792Z,10.75
2023-01-10T17:22:16.169Z,16.67
2023-01-10T17:24:44.469Z,19.90
2023-01-10T17:27:12.825Z,15.98
2023-01-10T17:29:41.181Z,14.77
2023-01-10T17:32:09.594Z,15.98
2023-01-10T17:34:39.304Z,11.95
2023-01-10T17:37:07.773Z,13.65
2023-01-10T17:39:37.837Z,6.28
2023-01-10T17:42:07.394Z,13.18
2023-01-10T17:44:36.147Z,15.82
2023-01-10T17:47:05.622Z,14.20
2023-01-10T17:49:36.403Z,12.90
2023-01-10T17:52:06.212Z,12.52
2023-01-10T17:57:12.362Z,10.38
2023-01-10T17:59:42.121Z,9.52
2023-01-10T18:02:17.839Z,8.90
2023-01-10T18:04:46.744Z,9.93
2023-01-10T18:07:45.146Z,5.88
2023-01-10T18:10:18.244Z,6.90
2023-01-10T18:12:49.440Z,8.77
2023-01-10T18:17:55.282Z,3.65
2023-01-10T18:20:27.839Z,3.17
2023-01-10T18:23:13.717Z,4.18
2023-01-10T18:25:52.377Z,4.40
2023-01-10T18:28:31.878Z,6.72
2023-01-10T18:31:10.643Z,2.42
2023-01-10T18:33:39.075Z,3.00
2023-01-10T18:36:09.249Z,5.25
2023-01-10T18:38:41.901Z,4.57
2023-01-10T18:41:17.744Z,3.10
2023-01-10T18:43:46.450Z,1.70
2023-01-10T18:46:18.377Z,4.43
2023-01-10T18:48:47.181Z,3.33
2023-01-10T18:51:15.640Z,2.65
2023-01-10T18:53:44.471Z,3.00
2023-01-10T18:56:17.452Z,3.38
2023-01-10T18:58:49.527Z,2.80
2023-01-10T19:01:34.627Z,2.97
2023-01-10T19:04:05.116Z,5.57
2023-01-10T19:06:40.526Z,4.45
2023-01-10T19:09:09.054Z,6.20
2023-01-10T19:11:41.504Z,5.82
2023-01-10T19:14:10.492Z,6.20
2023-01-10T19:16:44.143Z,6.10
2023-01-10T19:19:16.862Z,3.20
2023-01-10T19:21:45.638Z,10.82
2023-01-10T19:24:22.461Z,3.88
2023-01-10T19:26:55.425Z,4.95
2023-01-10T19:29:25.769Z,6.05
2023-01-10T19:32:01.809Z,4.55
2023-01-10T19:34:32.159Z,4.15
2023-01-10T19:37:03.688Z,4.68
2023-01-10T19:39:33.487Z,4.53
2023-01-10T19:42:03.394Z,5.75
2023-01-10T19:44:32.423Z,4.18
2023-01-10T19:47:13.617Z,2.22
2023-01-10T19:49:41.868Z,2.72
2023-01-10T19:52:17.402Z,5.55
2023-01-10T19:54:50.708Z,5.97
2023-01-10T19:57:20.324Z,10.18
2023-01-10T19:59:52.066Z,3.35
2023-01-10T20:02:24.024Z,7.57
2023-01-10T20:04:52.692Z,6.07
2023-01-10T20:07:26.172Z,4.63
2023-01-10T20:09:57.256Z,4.65
2023-01-10T20:14:55.459Z,5.32
2023-01-10T20:17:30.551Z,5.03
2023-01-10T20:20:09.817Z,5.47
2023-01-10T20:22:38.250Z,4.88
2023-01-10T20:25:07.611Z,4.15
2023-01-10T20:27:37.464Z,4.53
2023-01-10T20:30:08.871Z,2.95
2023-01-10T20:32:41.453Z,4.60
2023-01-10T20:35:16.284Z,4.15
2023-01-10T20:37:50.054Z,2.67
2023-01-10T20:40:26.288Z,4.10
2023-01-10T20:43:03.326Z,5.97
2023-01-10T20:45:45.575Z,2.22
2023-01-10T20:48:18.188Z,5.32
2023-01-10T20:50:56.187Z,7.07
2023-01-10T20:53:38.079Z,4.32
2023-01-10T20:56:12.254Z,6.13
2023-01-10T20:58:42.321Z,4.18
2023-01-10T21:01:25.032Z,3.40
2023-01-10T21:04:14.706Z,6.03
2023-01-10T21:06:44.480Z,6.97
2023-01-10T21:09:24.034Z,2.47
2023-01-10T21:12:21.755Z,3.20
2023-01-10T21:15:00.603Z,4.70
2023-01-10T21:17:40.484Z,7.80
2023-01-10T21:20:10.109Z,4.50
2023-01-10T21:22:42.264Z,4.22
2023-01-10T21:25:14.987Z,5.95
2023-01-10T21:27:51.841Z,3.20
2023-01-10T21:30:28.386Z,2.58
2023-01-10T21:33:21.087Z,4.40
2023-01-10T21:35:57.703Z,4.10
2023-01-10T21:39:05.845Z,3.47
2023-01-10T21:42:01.066Z,4.43
2023-01-10T21:44:35.538Z,4.85
2023-01-10T21:47:05.585Z,5.53
2023-01-10T21:49:33.804Z,4.57
2023-01-10T21:52:02.774Z,3.42
2023-01-10T21:54:32.217Z,4.93
2023-01-10T21:57:00.624Z,5.35
2023-01-10T21:59:31.610Z,3.88
2023-01-10T22:02:03.217Z,4.05
2023-01-10T22:04:39.585Z,2.70
2023-01-10T22:07:08.574Z,4.32
2023-01-10T22:09:36.767Z,5.35
2023-01-10T22:12:05.442Z,4.35
2023-01-10T22:14:38.802Z,5.57
2023-01-10T22:17:07.432Z,4.85
2023-01-10T22:19:40.071Z,4.45
2023-01-10T22:22:14.009Z,5.50
2023-01-10T22:24:47.947Z,4.47
2023-01-10T22:27:16.583Z,6.72
2023-01-10T22:29:47.934Z,8.00
2023-01-10T22:32:16.255Z,5.03
2023-01-10T22:34:45.914Z,4.07
2023-01-10T22:37:14.200Z,5.07
2023-01-10T22:39:43.516Z,4.07
2023-01-10T22:42:11.832Z,10.27
2023-01-10T22:44:41.423Z,3.65
2023-01-10T22:47:10.576Z,5.30
2023-01-10T22:49:38.898Z,5.63
2023-01-10T22:52:11.330Z,3.53
2023-01-10T22:54:39.467Z,7.15
2023-01-10T22:57:12.695Z,6.35
2023-01-10T22:59:45.362Z,4.82
2023-01-10T23:02:14.397Z,2.83
2023-01-10T23:04:48.259Z,4.68
2023-01-10T23:07:37.325Z,2.78
2023-01-10T23:10:28.732Z,3.97
2023-01-10T23:13:02.302Z,2.50
2023-01-10T23:15:39.841Z,4.80
2023-01-10T23:18:08.256Z,6.30
2023-01-10T23:20:38.599Z,8.88
2023-01-10T23:23:18.489Z,5.28
2023-01-10T23:26:01.338Z,11.88
2023-01-10T23:28:30.269Z,2.70
2023-01-10T23:30:58.696Z,5.40
2023-01-10T23:33:26.975Z,5.47
2023-01-10T23:36:02.015Z,8.02
2023-01-10T23:38:31.671Z,8.23
2023-01-10T23:41:00.129Z,5.77
2023-01-10T23:43:28.411Z,5.07
2023-01-10T23:45:56.590Z,5.43
2023-01-10T23:48:24.769Z,6.43
2023-01-10T23:50:53.400Z,5.53
2023-01-10T23:53:21.602Z,5.17
2023-01-10T23:55:53.402Z,6.83
2023-01-10T23:58:23.495Z,7.80
